createdAt,value
2022-11-27T00:00:17.693Z,39.53
2022-11-27T00:02:46.307Z,43.25
2022-11-27T00:05:14.904Z,46.63
2022-11-27T00:07:43.648Z,42.20
2022-11-27T00:10:14.192Z,41.30
2022-11-27T00:12:42.720Z,40.95
2022-11-27T00:15:16.942Z,43.38
2022-11-27T00:17:46.060Z,43.80
2022-11-27T00:20:15.349Z,42.05
2022-11-27T00:22:43.743Z,40.85
2022-11-27T00:25:13.705Z,36.53
2022-11-27T00:27:42.339Z,36.92
2022-11-27T00:30:11.769Z,45.70
2022-11-27T00:32:40.183Z,41.78
2022-11-27T00:35:09.514Z,40.47
2022-11-27T00:37:38.504Z,40.70
2022-11-27T00:40:08.691Z,47.88
2022-11-27T00:42:38.589Z,40.45
2022-11-27T00:45:07.814Z,39.88
2022-11-27T00:47:38.248Z,42.28
2022-11-27T00:50:07.905Z,38.83
2022-11-27T00:52:37.441Z,46.70
2022-11-27T00:55:06.641Z,42.95
2022-11-27T00:57:35.221Z,54.85
2022-11-27T01:00:06.067Z,49.08
2022-11-27T01:02:35.337Z,47.70
2022-11-27T01:05:03.860Z,51.03
2022-11-27T01:07:32.663Z,50.20
2022-11-27T01:10:01.132Z,45.72
2022-11-27T01:12:29.670Z,50.15
2022-11-27T01:14:58.319Z,46.25
2022-11-27T01:17:28.268Z,42.35
2022-11-27T01:19:56.810Z,53.90
2022-11-27T01:22:25.370Z,49.45
2022-11-27T01:24:53.878Z,37.88
2022-11-27T01:27:23.509Z,46.53
2022-11-27T01:29:52.137Z,49.80
2022-11-27T01:32:20.646Z,41.35
2022-11-27T01:34:50.888Z,45.38
2022-11-27T01:37:19.595Z,45.92
2022-11-27T01:39:48.130Z,54.15
2022-11-27T01:42:16.637Z,39.70
2022-11-27T01:44:53.680Z,44.30
2022-11-27T01:47:39.592Z,56.88
2022-11-27T01:50:15.327Z,50.50
2022-11-27T01:52:49.815Z,58.42
2022-11-27T01:55:25.000Z,43.83
2022-11-27T01:57:56.760Z,48.08
2022-11-27T02:00:26.451Z,53.90
2022-11-27T02:02:55.253Z,37.88
2022-11-27T02:05:28.951Z,39.78
2022-11-27T02:07:59.417Z,42.15
2022-11-27T02:10:37.651Z,46.97
2022-11-27T02:13:11.643Z,46.85
2022-11-27T02:15:48.662Z,53.47
2022-11-27T02:18:25.929Z,36.40
2022-11-27T02:21:05.910Z,37.75
2022-11-27T02:24:07.319Z,45.15
2022-11-27T02:27:12.201Z,41.50
2022-11-27T02:29:44.431Z,37.72
2022-11-27T02:32:21.539Z,41.83
2022-11-27T02:34:56.743Z,45.05
2022-11-27T02:37:34.212Z,43.53
2022-11-27T02:40:06.995Z,46.20
2022-11-27T02:42:40.855Z,30.83
2022-11-27T02:45:14.530Z,40.25
2022-11-27T02:47:46.446Z,37.33
2022-11-27T02:50:19.700Z,39.28
2022-11-27T02:52:51.701Z,53.83
2022-11-27T02:55:24.590Z,37.78
2022-11-27T02:57:57.452Z,42.53
2022-11-27T03:00:27.624Z,43.25
2022-11-27T03:03:00.858Z,41.15
2022-11-27T03:05:34.166Z,41.97
2022-11-27T03:08:08.763Z,41.72
2022-11-27T03:10:41.840Z,39.58
2022-11-27T03:13:10.518Z,38.70
2022-11-27T03:15:46.927Z,35.80
2022-11-27T03:18:24.152Z,46.22
2022-11-27T03:21:00.190Z,51.20
2022-11-27T03:23:29.941Z,38.53
2022-11-27T03:25:58.699Z,44.85
2022-11-27T03:28:30.239Z,36.08
2022-11-27T03:31:00.414Z,41.80
2022-11-27T03:33:29.225Z,42.67
2022-11-27T03:35:57.810Z,46.65
2022-11-27T03:38:27.493Z,50.50
2022-11-27T03:41:07.091Z,51.30
2022-11-27T03:43:43.632Z,48.33
2022-11-27T03:46:25.687Z,46.92
2022-11-27T03:49:04.411Z,43.90
2022-11-27T03:51:41.102Z,40.65
2022-11-27T03:54:18.069Z,40.88
2022-11-27T03:56:54.811Z,42.97
2022-11-27T03:59:27.459Z,47.78
2022-11-27T04:01:57.933Z,41.90
2022-11-27T04:04:27.183Z,45.38
2022-11-27T04:06:55.852Z,49.03
2022-11-27T04:09:25.608Z,45.30
2022-11-27T04:11:54.072Z,33.83
2022-11-27T04:14:22.627Z,42.03
2022-11-27T04:16:51.151Z,41.80
2022-11-27T04:19:21.135Z,44.15
2022-11-27T04:21:49.671Z,43.75
2022-11-27T04:24:18.510Z,45.78
2022-11-27T04:26:46.961Z,49.40
2022-11-27T04:29:15.629Z,30.70
2022-11-27T04:31:44.191Z,49.38
2022-11-27T04:34:12.755Z,51.78
2022-11-27T04:36:42.950Z,37.47
2022-11-27T04:39:13.556Z,43.83
2022-11-27T04:41:42.170Z,37.88
2022-11-27T04:44:10.792Z,29.15
2022-11-27T04:46:39.432Z,38.20
2022-11-27T04:49:08.000Z,41.75
2022-11-27T04:51:36.611Z,39.67
2022-11-27T04:54:06.726Z,43.50
2022-11-27T04:56:35.291Z,42.72
2022-11-27T04:59:03.769Z,35.08
2022-11-27T05:01:32.621Z,43.42
2022-11-27T05:04:01.184Z,47.95
2022-11-27T05:06:29.619Z,44.78
2022-11-27T05:09:02.179Z,36.80
2022-11-27T05:11:33.467Z,37.60
2022-11-27T05:14:18.640Z,34.10
2022-11-27T05:16:49.440Z,37.63
2022-11-27T05:19:19.771Z,44.00
2022-11-27T05:21:49.309Z,43.47
2022-11-27T05:24:19.879Z,47.50
2022-11-27T05:26:50.210Z,36.88
2022-11-27T05:29:18.910Z,38.33
2022-11-27T05:31:47.601Z,40.47
2022-11-27T05:34:16.361Z,36.20
2022-11-27T05:36:46.081Z,43.75
2022-11-27T05:39:14.310Z,42.17
2022-11-27T05:41:44.537Z,34.28
2022-11-27T05:44:16.680Z,33.38
2022-11-27T05:46:45.438Z,35.20
2022-11-27T05:49:16.201Z,39.65
2022-11-27T05:51:50.975Z,33.63
2022-11-27T05:54:22.797Z,30.58
2022-11-27T05:56:51.199Z,35.35
2022-11-27T05:59:21.590Z,36.95
2022-11-27T06:01:50.634Z,43.22
2022-11-27T06:04:19.860Z,41.50
2022-11-27T06:06:48.419Z,38.17
2022-11-27T06:09:16.906Z,36.83
2022-11-27T06:11:45.522Z,41.22
2022-11-27T06:14:13.979Z,43.20
2022-11-27T06:16:44.303Z,37.47
2022-11-27T06:19:12.864Z,38.25
2022-11-27T06:21:41.401Z,42.80
2022-11-27T06:24:09.892Z,53.35
2022-11-27T06:26:38.421Z,36.08
2022-11-27T06:29:07.049Z,41.72
2022-11-27T06:31:38.931Z,35.40
2022-11-27T06:34:09.493Z,41.88
2022-11-27T06:36:41.475Z,36.00
2022-11-27T06:39:12.348Z,35.25
2022-11-27T06:41:41.012Z,42.38
2022-11-27T06:44:11.381Z,46.35
2022-11-27T06:46:39.928Z,41.45
2022-11-27T06:49:11.605Z,35.65
2022-11-27T06:51:40.262Z,42.28
2022-11-27T06:54:08.914Z,39.80
2022-11-27T06:56:37.480Z,37.90
2022-11-27T06:59:06.439Z,42.35
2022-11-27T07:01:35.179Z,50.55
2022-11-27T07:04:03.778Z,49.38
2022-11-27T07:06:37.041Z,41.63
2022-11-27T07:09:06.458Z,54.47
2022-11-27T07:11:35.799Z,43.45
2022-11-27T07:14:06.485Z,44.55
2022-11-27T07:16:37.530Z,44.15
2022-11-27T07:19:08.227Z,48.47
2022-11-27T07:21:40.283Z,45.05
2022-11-27T07:24:09.510Z,40.97
2022-11-27T07:26:40.023Z,46.05
2022-11-27T07:29:08.777Z,32.55
2022-11-27T07:31:37.607Z,38.70
2022-11-27T07:34:11.706Z,47.50
2022-11-27T07:36:47.698Z,44.97
2022-11-27T07:39:25.267Z,34.70
2022-11-27T07:42:16.737Z,43.72
2022-11-27T07:44:51.764Z,49.38
2022-11-27T07:47:20.372Z,44.10
2022-11-27T07:49:48.940Z,36.78
2022-11-27T07:52:18.809Z,39.72
2022-11-27T07:54:47.345Z,37.90
2022-11-27T07:57:15.869Z,46.83
2022-11-27T07:59:47.323Z,50.95
2022-11-27T08:02:16.794Z,35.90
2022-11-27T08:04:45.578Z,48.15
2022-11-27T08:07:14.584Z,50.17
2022-11-27T08:09:44.788Z,44.22
2022-11-27T08:12:13.339Z,42.80
2022-11-27T08:14:42.099Z,43.50
2022-11-27T08:17:14.640Z,41.38
2022-11-27T08:19:43.322Z,43.05
2022-11-27T08:22:14.101Z,42.63
2022-11-27T08:24:44.177Z,38.63
2022-11-27T08:27:13.456Z,37.80
2022-11-27T08:29:43.251Z,41.53
2022-11-27T08:32:12.433Z,37.22
2022-11-27T08:34:43.908Z,39.88
2022-11-27T08:37:12.619Z,42.83
2022-11-27T08:39:43.667Z,39.92
2022-11-27T08:42:12.438Z,47.40
2022-11-27T08:44:41.255Z,36.75
2022-11-27T08:47:10.095Z,27.83
2022-11-27T08:49:45.930Z,43.45
2022-11-27T08:52:15.425Z,31.45
2022-11-27T08:54:45.432Z,39.38
2022-11-27T08:57:13.920Z,41.60
2022-11-27T08:59:45.324Z,35.47
2022-11-27T09:02:14.145Z,36.72
2022-11-27T09:04:42.826Z,37.35
2022-11-27T09:07:14.573Z,33.53
2022-11-27T09:09:44.835Z,34.85
2022-11-27T09:12:13.971Z,34.17
2022-11-27T09:14:44.848Z,30.90
2022-11-27T09:17:13.498Z,36.40
2022-11-27T09:19:44.595Z,36.92
2022-11-27T09:22:13.161Z,39.05
2022-11-27T09:24:42.193Z,36.13
2022-11-27T09:27:15.251Z,39.60
2022-11-27T09:29:43.794Z,49.72
2022-11-27T09:32:12.600Z,30.45
2022-11-27T09:34:41.435Z,36.50
2022-11-27T09:37:10.431Z,34.60
2022-11-27T09:39:39.220Z,36.95
2022-11-27T09:42:16.678Z,36.35
2022-11-27T09:44:52.309Z,37.42
2022-11-27T09:47:38.394Z,42.40
2022-11-27T09:50:15.820Z,38.72
2022-11-27T09:52:49.871Z,37.63
2022-11-27T09:55:25.484Z,37.22
2022-11-27T09:58:00.747Z,32.63
2022-11-27T10:00:31.096Z,37.05
2022-11-27T10:02:59.877Z,38.92
2022-11-27T10:05:34.803Z,40.38
2022-11-27T10:08:19.525Z,32.78
2022-11-27T10:11:02.051Z,32.22
2022-11-27T10:13:44.586Z,31.38
2022-11-27T10:16:27.722Z,38.17
2022-11-27T10:18:59.910Z,32.60
2022-11-27T10:21:37.696Z,34.92
2022-11-27T10:24:17.609Z,32.55
2022-11-27T10:26:48.449Z,37.45
2022-11-27T10:29:30.799Z,29.85
2022-11-27T10:32:05.443Z,26.95
2022-11-27T10:34:43.648Z,25.40
2022-11-27T10:37:19.199Z,26.10
2022-11-27T10:39:53.022Z,28.60
2022-11-27T10:42:26.216Z,25.70
2022-11-27T10:45:00.990Z,31.25
2022-11-27T10:47:33.846Z,22.20
2022-11-27T10:50:02.968Z,29.48
2022-11-27T10:52:31.401Z,21.02
2022-11-27T10:55:03.990Z,23.98
2022-11-27T10:57:59.355Z,24.90
2022-11-27T11:00:29.645Z,26.33
2022-11-27T11:03:03.777Z,24.63
2022-11-27T11:05:57.475Z,20.05
2022-11-27T11:08:26.653Z,23.98
2022-11-27T11:10:59.638Z,20.42
2022-11-27T11:13:28.701Z,23.02
2022-11-27T11:16:02.013Z,25.00
2022-11-27T11:18:34.730Z,26.25
2022-11-27T11:21:07.527Z,19.38
2022-11-27T11:23:40.248Z,22.73
2022-11-27T11:26:16.846Z,34.40
2022-11-27T11:28:52.286Z,24.15
2022-11-27T11:31:24.690Z,24.13
2022-11-27T11:33:59.951Z,23.95
2022-11-27T11:36:30.132Z,28.02
2022-11-27T11:38:59.812Z,25.33
2022-11-27T11:41:40.592Z,18.38
2022-11-27T11:44:26.508Z,26.10
2022-11-27T11:46:57.702Z,20.77
2022-11-27T11:49:29.244Z,23.40
2022-11-27T11:52:22.834Z,23.27
2022-11-27T11:55:01.503Z,29.58
2022-11-27T11:58:10.485Z,26.85
2022-11-27T12:01:19.465Z,30.10
2022-11-27T12:03:43.110Z,35.83
2022-11-27T12:06:32.818Z,37.35
2022-11-27T12:09:13.642Z,36.42
2022-11-27T12:11:50.747Z,37.50
2022-11-27T12:14:36.113Z,37.17
2022-11-27T12:17:19.033Z,36.45
2022-11-27T12:20:00.009Z,36.15
2022-11-27T12:22:50.394Z,39.67
2022-11-27T12:25:30.294Z,29.10
2022-11-27T12:28:13.254Z,23.27
2022-11-27T12:30:52.267Z,24.23
2022-11-27T12:33:42.808Z,13.30
2022-11-27T12:36:23.882Z,12.48
2022-11-27T12:39:11.029Z,9.88
2022-11-27T12:42:04.119Z,9.98
2022-11-27T12:44:47.884Z,12.18
2022-11-27T12:47:24.744Z,14.75
2022-11-27T12:50:00.862Z,12.30
2022-11-27T12:52:35.712Z,13.82
2022-11-27T12:55:15.075Z,13.80
2022-11-27T12:57:50.456Z,12.93
2022-11-27T13:00:24.323Z,10.30
2022-11-27T13:03:04.248Z,11.07
2022-11-27T13:05:39.787Z,14.45
2022-11-27T13:08:15.494Z,13.45
2022-11-27T13:10:53.664Z,11.25
2022-11-27T13:13:29.621Z,12.48
2022-11-27T13:16:04.203Z,10.70
2022-11-27T13:18:38.220Z,11.02
2022-11-27T13:21:11.302Z,20.00
2022-11-27T13:23:40.029Z,15.82
2022-11-27T13:26:20.708Z,19.33
2022-11-27T13:28:55.786Z,15.73
2022-11-27T13:31:27.143Z,16.90
2022-11-27T13:34:02.513Z,11.43
2022-11-27T13:36:38.784Z,11.25
2022-11-27T13:39:08.747Z,14.52
2022-11-27T13:41:41.437Z,12.75
2022-11-27T13:44:25.740Z,6.72
2022-11-27T13:46:59.594Z,4.50
2022-11-27T13:49:32.381Z,6.55
2022-11-27T13:52:12.462Z,8.70
2022-11-27T13:54:53.367Z,6.95
2022-11-27T13:57:24.572Z,3.85
2022-11-27T14:00:04.657Z,7.88
2022-11-27T14:02:44.752Z,6.30
2022-11-27T14:05:15.102Z,8.52
2022-11-27T14:07:46.911Z,4.45
2022-11-27T14:10:19.101Z,6.43
2022-11-27T14:12:57.427Z,5.40
2022-11-27T14:15:27.742Z,7.03
2022-11-27T14:18:06.981Z,6.75
2022-11-27T14:20:39.537Z,4.90
2022-11-27T14:23:13.138Z,5.28
2022-11-27T14:25:42.914Z,7.10
2022-11-27T14:28:18.260Z,7.47
2022-11-27T14:30:49.926Z,7.22
2022-11-27T14:33:21.037Z,12.13
2022-11-27T14:35:54.177Z,8.23
2022-11-27T14:38:24.649Z,8.57
2022-11-27T14:40:55.196Z,11.75
2022-11-27T14:43:27.488Z,11.57
2022-11-27T14:46:00.638Z,8.27
2022-11-27T14:48:33.579Z,8.43
2022-11-27T14:51:03.397Z,10.48
2022-11-27T14:53:32.928Z,10.77
2022-11-27T14:56:01.567Z,7.35
2022-11-27T14:58:31.800Z,12.30
2022-11-27T15:01:02.804Z,11.50
2022-11-27T15:03:32.473Z,7.90
2022-11-27T15:06:03.197Z,13.85
2022-11-27T15:08:35.651Z,9.73
2022-11-27T15:11:06.477Z,12.38
2022-11-27T15:13:38.871Z,11.52
2022-11-27T15:16:16.167Z,15.13
2022-11-27T15:18:49.853Z,12.45
2022-11-27T15:21:26.738Z,11.18
2022-11-27T15:23:57.546Z,11.35
2022-11-27T15:26:35.962Z,9.60
2022-11-27T15:29:06.104Z,11.18
2022-11-27T15:31:37.782Z,12.68
2022-11-27T15:34:22.131Z,10.57
2022-11-27T15:36:55.845Z,13.82
2022-11-27T15:39:26.716Z,12.32
2022-11-27T15:41:58.225Z,11.32
2022-11-27T15:44:29.707Z,14.95
2022-11-27T15:47:00.296Z,12.55
2022-11-27T15:49:29.469Z,9.30
2022-11-27T15:51:59.550Z,20.73
2022-11-27T15:54:28.169Z,11.15
2022-11-27T15:56:56.791Z,11.15
2022-11-27T15:59:29.554Z,15.43
2022-11-27T16:01:58.277Z,12.60
2022-11-27T16:04:27.298Z,10.50
2022-11-27T16:06:55.635Z,10.50
2022-11-27T16:09:24.313Z,11.43
2022-11-27T16:11:52.858Z,19.30
2022-11-27T16:14:21.603Z,12.95
2022-11-27T16:16:52.461Z,10.25
2022-11-27T16:19:21.808Z,15.88
2022-11-27T16:21:50.331Z,14.10
2022-11-27T16:24:18.868Z,12.63
2022-11-27T16:26:47.217Z,12.48
2022-11-27T16:29:15.649Z,18.70
2022-11-27T16:31:44.457Z,26.63
2022-11-27T16:34:18.138Z,43.05
2022-11-27T16:36:46.823Z,27.17
2022-11-27T16:39:15.668Z,39.33
2022-11-27T16:41:44.023Z,27.85
2022-11-27T16:44:15.222Z,26.20
2022-11-27T16:46:45.021Z,27.17
2022-11-27T16:49:13.551Z,17.33
2022-11-27T16:51:44.040Z,23.33
2022-11-27T16:54:15.067Z,22.48
2022-11-27T16:56:44.352Z,17.67
2022-11-27T16:59:15.346Z,17.52
2022-11-27T17:01:44.495Z,15.23
2022-11-27T17:04:18.753Z,16.60
2022-11-27T17:06:53.053Z,14.57
2022-11-27T17:09:23.111Z,18.63
2022-11-27T17:11:51.682Z,21.15
2022-11-27T17:14:21.221Z,25.30
2022-11-27T17:16:51.364Z,22.88
2022-11-27T17:19:34.498Z,19.58
2022-11-27T17:22:04.616Z,20.70
2022-11-27T17:24:35.898Z,21.40
2022-11-27T17:27:04.709Z,19.83
2022-11-27T17:29:34.066Z,22.23
2022-11-27T17:32:02.768Z,18.80
2022-11-27T17:34:31.444Z,23.50
2022-11-27T17:37:00.324Z,21.48
2022-11-27T17:39:30.360Z,18.42
2022-11-27T17:41:59.221Z,21.42
2022-11-27T17:44:27.984Z,17.63
2022-11-27T17:46:56.553Z,19.20
2022-11-27T17:49:24.843Z,21.80
2022-11-27T17:51:53.204Z,20.88
2022-11-27T17:54:21.719Z,22.67
2022-11-27T17:56:54.582Z,19.63
2022-11-27T17:59:23.413Z,21.70
2022-11-27T18:01:53.749Z,18.10
2022-11-27T18:04:23.405Z,24.08
2022-11-27T18:06:52.702Z,18.08
2022-11-27T18:09:21.153Z,21.52
2022-11-27T18:11:49.720Z,19.88
2022-11-27T18:14:19.658Z,25.33
2022-11-27T18:16:48.267Z,22.42
2022-11-27T18:19:17.213Z,23.58
2022-11-27T18:21:45.758Z,25.75
2022-11-27T18:24:22.951Z,21.30
2022-11-27T18:27:08.036Z,20.70
2022-11-27T18:29:40.336Z,20.67
2022-11-27T18:32:10.649Z,27.75
2022-11-27T18:34:40.430Z,16.65
2022-11-27T18:37:09.822Z,27.83
2022-11-27T18:39:39.964Z,19.70
2022-11-27T18:42:09.771Z,17.67
2022-11-27T18:44:45.187Z,21.27
2022-11-27T18:47:14.614Z,20.70
2022-11-27T18:49:44.587Z,27.13
2022-11-27T18:52:13.622Z,24.02
2022-11-27T18:54:42.113Z,29.05
2022-11-27T18:57:12.382Z,23.95
2022-11-27T18:59:45.054Z,15.10
2022-11-27T19:02:14.773Z,13.95
2022-11-27T19:04:45.047Z,12.65
2022-11-27T19:07:15.449Z,9.32
2022-11-27T19:09:44.163Z,7.95
2022-11-27T19:12:14.212Z,3.53
2022-11-27T19:14:46.505Z,5.32
2022-11-27T19:17:15.127Z,4.20
2022-11-27T19:19:54.168Z,2.78
2022-11-27T19:22:23.724Z,2.83
2022-11-27T19:24:52.314Z,3.15
2022-11-27T19:27:23.275Z,2.53
2022-11-27T19:29:54.495Z,5.05
2022-11-27T19:32:22.976Z,1.42
2022-11-27T19:34:54.529Z,2.83
2022-11-27T19:37:33.987Z,3.30
2022-11-27T19:40:06.893Z,4.13
2022-11-27T19:42:35.750Z,8.10
2022-11-27T19:45:06.618Z,4.65
2022-11-27T19:47:35.279Z,5.57
2022-11-27T19:50:04.226Z,4.45
2022-11-27T19:52:34.753Z,5.88
2022-11-27T19:55:03.236Z,4.43
2022-11-27T19:57:31.896Z,4.32
2022-11-27T20:00:00.489Z,4.85
2022-11-27T20:02:31.911Z,4.35
2022-11-27T20:05:00.312Z,3.70
2022-11-27T20:07:29.048Z,4.45
2022-11-27T20:09:57.739Z,3.63
2022-11-27T20:12:26.177Z,7.32
2022-11-27T20:14:54.700Z,6.20
2022-11-27T20:17:23.476Z,6.07
2022-11-27T20:19:53.385Z,10.45
2022-11-27T20:22:21.926Z,10.20
2022-11-27T20:25:17.326Z,9.93
2022-11-27T20:27:39.896Z,13.00
2022-11-27T20:30:10.404Z,10.80
2022-11-27T20:32:38.999Z,13.73
2022-11-27T20:35:10.117Z,13.85
2022-11-27T20:37:39.091Z,14.68
2022-11-27T20:40:09.527Z,18.00
2022-11-27T20:42:38.515Z,23.35
2022-11-27T20:45:08.239Z,22.08
2022-11-27T20:47:36.873Z,23.15
2022-11-27T20:50:09.403Z,17.80
2022-11-27T20:52:38.068Z,18.83
2022-11-27T20:55:08.022Z,19.73
2022-11-27T20:57:36.679Z,17.10
2022-11-27T21:00:07.844Z,17.33
2022-11-27T21:02:36.892Z,17.92
2022-11-27T21:05:05.907Z,21.63
2022-11-27T21:07:38.966Z,22.02
2022-11-27T21:10:09.273Z,22.15
2022-11-27T21:12:39.218Z,20.73
2022-11-27T21:15:09.739Z,18.92
2022-11-27T21:17:39.254Z,20.92
2022-11-27T21:20:09.399Z,20.85
2022-11-27T21:22:42.900Z,25.15
2022-11-27T21:25:11.925Z,21.48
2022-11-27T21:27:41.264Z,24.30
2022-11-27T21:30:10.855Z,23.00
2022-11-27T21:32:39.329Z,18.23
2022-11-27T21:35:08.727Z,22.42
2022-11-27T21:37:38.893Z,23.10
2022-11-27T21:40:09.795Z,17.48
2022-11-27T21:42:43.100Z,26.92
2022-11-27T21:45:13.312Z,26.42
2022-11-27T21:47:41.709Z,24.85
2022-11-27T21:50:14.180Z,24.60
2022-11-27T21:52:44.124Z,23.50
2022-11-27T21:55:12.631Z,23.08
2022-11-27T21:57:41.712Z,20.23
2022-11-27T22:00:11.168Z,19.42
2022-11-27T22:02:39.978Z,24.15
2022-11-27T22:05:09.978Z,22.73
2022-11-27T22:07:38.626Z,26.15
2022-11-27T22:10:11.454Z,23.30
2022-11-27T22:12:39.845Z,25.63
2022-11-27T22:15:09.315Z,21.92
2022-11-27T22:17:40.158Z,21.52
2022-11-27T22:20:10.670Z,26.75
2022-11-27T22:22:39.221Z,24.77
2022-11-27T22:25:10.169Z,20.60
2022-11-27T22:27:38.830Z,26.67
2022-11-27T22:30:08.872Z,21.55
2022-11-27T22:32:40.069Z,18.85
2022-11-27T22:35:09.266Z,26.17
2022-11-27T22:37:37.798Z,21.15
2022-11-27T22:40:08.426Z,19.50
2022-11-27T22:42:38.527Z,26.95
2022-11-27T22:45:08.887Z,23.50
2022-11-27T22:47:37.433Z,24.67
2022-11-27T22:50:07.594Z,26.45
2022-11-27T22:52:37.448Z,20.48
2022-11-27T22:55:06.633Z,18.17
2022-11-27T22:57:35.488Z,20.35
2022-11-27T23:00:10.107Z,24.77
2022-11-27T23:02:39.760Z,26.38
2022-11-27T23:05:08.691Z,30.88
2022-11-27T23:07:37.473Z,22.88
2022-11-27T23:10:06.759Z,22.40
2022-11-27T23:12:35.293Z,22.15
2022-11-27T23:15:05.892Z,20.70
2022-11-27T23:17:34.439Z,26.70
2022-11-27T23:20:02.905Z,17.60
2022-11-27T23:22:32.670Z,22.77
2022-11-27T23:25:01.207Z,19.63
2022-11-27T23:27:29.928Z,22.27
2022-11-27T23:29:58.458Z,18.88
2022-11-27T23:32:29.534Z,17.67
2022-11-27T23:34:58.153Z,25.13
2022-11-27T23:37:26.867Z,17.88
2022-11-27T23:39:55.181Z,22.77
2022-11-27T23:42:23.545Z,15.13
2022-11-27T23:44:51.913Z,19.13
2022-11-27T23:47:21.410Z,19.38
2022-11-27T23:49:51.759Z,21.83
2022-11-27T23:52:20.243Z,21.90
2022-11-27T23:54:48.949Z,21.10
2022-11-27T23:57:17.524Z,19.58
2022-11-27T23:59:46.327Z,19.42
